createdAt,value
2019-03-31T00:02:02.981Z,157.73
2019-03-31T00:04:32.626Z,155.80
2019-03-31T00:07:05.347Z,158.03
2019-03-31T00:09:36.862Z,150.90
2019-03-31T00:12:06.670Z,144.73
2019-03-31T00:14:36.372Z,157.33
2019-03-31T00:17:06.000Z,150.87
2019-03-31T00:19:35.845Z,156.67
2019-03-31T00:22:05.732Z,160.30
2019-03-31T00:24:35.500Z,151.00
2019-03-31T00:27:05.164Z,158.20
2019-03-31T00:29:34.948Z,160.47
2019-03-31T00:32:04.855Z,162.07
2019-03-31T00:34:35.083Z,155.43
2019-03-31T00:37:08.005Z,154.67
2019-03-31T00:39:38.183Z,160.23
2019-03-31T00:42:07.990Z,161.00
2019-03-31T00:44:37.986Z,164.70
2019-03-31T00:47:10.584Z,164.30
2019-03-31T00:49:43.369Z,156.93
2019-03-31T00:52:13.595Z,166.50
2019-03-31T00:54:44.005Z,171.03
2019-03-31T00:57:15.487Z,160.03
2019-03-31T00:59:45.284Z,154.90
2019-03-31T01:02:16.683Z,155.70
2019-03-31T01:04:46.442Z,162.93
2019-03-31T01:07:16.770Z,153.40
2019-03-31T01:09:46.623Z,159.83
2019-03-31T01:12:29.376Z,155.63
2019-03-31T01:14:59.259Z,166.80
2019-03-31T01:17:31.964Z,159.83
2019-03-31T01:20:02.501Z,157.37
2019-03-31T01:22:32.451Z,165.77
2019-03-31T01:25:06.233Z,168.70
2019-03-31T01:27:38.960Z,168.80
2019-03-31T01:30:10.307Z,161.73
2019-03-31T01:32:40.164Z,161.47
2019-03-31T01:35:10.613Z,165.37
2019-03-31T01:37:42.574Z,165.77
2019-03-31T01:40:12.185Z,154.20
2019-03-31T01:42:41.897Z,155.57
2019-03-31T01:45:11.942Z,146.70
2019-03-31T01:47:41.593Z,150.87
2019-03-31T01:50:11.940Z,154.37
2019-03-31T01:52:41.835Z,152.90
2019-03-31T01:55:11.819Z,157.73
2019-03-31T01:57:44.702Z,153.50
2019-03-31T02:00:27.604Z,156.23
2019-03-31T02:02:57.342Z,153.87
2019-03-31T02:05:27.226Z,158.57
2019-03-31T02:07:57.196Z,166.30
2019-03-31T02:10:27.428Z,179.07
2019-03-31T02:12:57.196Z,172.30
2019-03-31T02:15:30.042Z,170.47
2019-03-31T02:17:59.838Z,158.60
2019-03-31T02:20:29.838Z,167.40
2019-03-31T02:22:59.479Z,175.53
2019-03-31T02:25:29.330Z,161.50
2019-03-31T02:27:58.940Z,160.03
2019-03-31T02:30:28.687Z,166.13
2019-03-31T02:32:58.308Z,164.70
2019-03-31T02:35:28.043Z,149.53
2019-03-31T02:37:57.711Z,141.83
2019-03-31T02:40:30.497Z,151.00
2019-03-31T02:43:00.129Z,150.20
2019-03-31T02:45:29.940Z,147.30
2019-03-31T02:47:59.886Z,139.73
2019-03-31T02:50:49.468Z,139.80
2019-03-31T02:53:19.342Z,141.63
2019-03-31T02:55:49.473Z,138.93
2019-03-31T02:58:19.681Z,127.77
2019-03-31T03:00:49.442Z,126.73
2019-03-31T03:03:19.854Z,121.67
2019-03-31T03:05:49.953Z,130.10
2019-03-31T03:08:20.319Z,116.93
2019-03-31T03:10:51.970Z,116.20
2019-03-31T03:13:23.365Z,116.20
2019-03-31T03:16:27.334Z,115.17
2019-03-31T03:18:57.505Z,106.27
2019-03-31T03:21:27.118Z,99.67
2019-03-31T03:23:56.849Z,100.27
2019-03-31T03:26:26.407Z,100.53
2019-03-31T03:28:57.962Z,90.37
2019-03-31T03:31:27.596Z,83.37
2019-03-31T03:33:57.345Z,92.40
2019-03-31T03:36:26.896Z,81.87
2019-03-31T03:38:56.772Z,83.70
2019-03-31T03:45:10.729Z,83.00
2019-03-31T03:47:43.349Z,77.70
2019-03-31T03:50:13.574Z,71.93
2019-03-31T03:52:43.397Z,70.73
2019-03-31T03:55:13.090Z,70.60
2019-03-31T03:57:42.718Z,63.03
2019-03-31T04:00:12.531Z,63.37
2019-03-31T04:02:42.167Z,56.43
2019-03-31T04:05:12.987Z,57.13
2019-03-31T04:07:42.822Z,53.83
2019-03-31T04:11:06.232Z,56.37
2019-03-31T04:13:36.346Z,52.97
2019-03-31T04:16:05.956Z,53.43
2019-03-31T04:18:35.318Z,51.67
2019-03-31T04:21:04.965Z,51.67
2019-03-31T04:23:34.759Z,49.07
2019-03-31T04:26:04.741Z,44.50
2019-03-31T04:28:37.140Z,47.63
2019-03-31T04:31:06.638Z,46.13
2019-03-31T04:33:50.781Z,42.70
2019-03-31T04:36:07.777Z,45.87
2019-03-31T04:38:37.433Z,42.80
2019-03-31T04:41:07.090Z,37.40
2019-03-31T04:43:36.635Z,41.57
2019-03-31T04:46:06.287Z,39.97
2019-03-31T04:48:36.150Z,45.67
2019-03-31T04:51:05.849Z,40.20
2019-03-31T04:53:35.312Z,41.17
2019-03-31T04:56:05.063Z,39.63
2019-03-31T04:58:34.592Z,45.70
2019-03-31T05:01:04.171Z,44.40
2019-03-31T05:03:33.968Z,41.87
2019-03-31T05:06:03.723Z,41.80
2019-03-31T05:08:33.525Z,40.13
2019-03-31T05:11:06.635Z,43.27
2019-03-31T05:13:36.234Z,46.03
2019-03-31T05:16:06.203Z,52.77
2019-03-31T05:18:35.867Z,39.67
2019-03-31T05:21:06.843Z,40.50
2019-03-31T05:23:36.892Z,39.97
2019-03-31T05:26:06.438Z,36.13
2019-03-31T05:28:36.151Z,33.90
2019-03-31T05:31:06.425Z,33.40
2019-03-31T05:33:35.979Z,35.83
2019-03-31T05:36:05.734Z,36.80
2019-03-31T05:38:35.421Z,43.73
2019-03-31T05:41:05.033Z,37.83
2019-03-31T05:43:34.774Z,38.47
2019-03-31T05:46:04.515Z,33.27
2019-03-31T05:48:34.238Z,36.10
2019-03-31T05:51:03.852Z,38.20
2019-03-31T05:53:33.480Z,37.10
2019-03-31T05:56:03.107Z,32.23
2019-03-31T05:58:32.677Z,39.47
2019-03-31T06:01:02.407Z,36.17
2019-03-31T06:03:31.938Z,41.87
2019-03-31T06:06:01.595Z,36.67
2019-03-31T06:08:31.454Z,37.63
2019-03-31T06:11:01.140Z,30.30
2019-03-31T06:13:30.791Z,37.20
2019-03-31T06:16:00.830Z,37.07
2019-03-31T06:18:30.536Z,41.37
2019-03-31T06:21:00.321Z,35.33
2019-03-31T06:23:30.008Z,38.30
2019-03-31T06:25:59.994Z,39.30
2019-03-31T06:28:32.853Z,35.80
2019-03-31T06:31:02.586Z,35.27
2019-03-31T06:33:32.189Z,39.90
2019-03-31T06:36:01.969Z,31.77
2019-03-31T06:38:34.674Z,40.97
2019-03-31T06:41:04.508Z,34.53
2019-03-31T06:43:36.594Z,28.37
2019-03-31T06:46:06.381Z,32.83
2019-03-31T06:48:35.978Z,38.20
2019-03-31T06:51:17.941Z,22.13
2019-03-31T06:53:52.710Z,24.53
2019-03-31T06:56:23.394Z,30.47
2019-03-31T06:59:02.237Z,36.07
2019-03-31T07:01:33.729Z,30.77
2019-03-31T07:04:03.480Z,23.57
2019-03-31T07:06:36.616Z,25.87
2019-03-31T07:09:41.578Z,20.20
2019-03-31T07:12:35.697Z,23.40
2019-03-31T07:15:12.558Z,24.40
2019-03-31T07:17:55.084Z,22.57
2019-03-31T07:20:27.046Z,27.57
2019-03-31T07:23:19.264Z,17.83
2019-03-31T07:28:46.976Z,20.73
2019-03-31T07:32:08.578Z,17.90
2019-03-31T07:35:17.814Z,20.27
2019-03-31T07:37:47.411Z,22.13
2019-03-31T07:40:15.665Z,24.57
2019-03-31T07:42:52.966Z,17.53
2019-03-31T07:45:24.193Z,20.90
2019-03-31T07:48:05.235Z,15.93
2019-03-31T07:51:11.051Z,14.60
2019-03-31T07:53:40.630Z,24.20
2019-03-31T07:56:10.242Z,15.13
2019-03-31T07:58:42.134Z,16.93
2019-03-31T08:01:14.636Z,14.53
2019-03-31T08:03:44.176Z,12.23
2019-03-31T08:06:14.184Z,12.43
2019-03-31T08:08:45.761Z,14.90
2019-03-31T08:11:17.067Z,9.80
2019-03-31T08:13:49.707Z,11.30
2019-03-31T08:16:19.376Z,10.87
2019-03-31T08:18:49.352Z,10.20
2019-03-31T08:21:19.639Z,11.00
2019-03-31T08:23:49.137Z,7.57
2019-03-31T08:26:19.027Z,7.80
2019-03-31T08:28:48.841Z,11.77
2019-03-31T08:31:18.546Z,9.17
2019-03-31T08:33:48.413Z,7.67
2019-03-31T08:36:17.937Z,9.33
2019-03-31T08:38:47.465Z,11.53
2019-03-31T08:41:19.835Z,8.17
2019-03-31T08:43:49.424Z,6.10
2019-03-31T08:46:22.074Z,8.10
2019-03-31T08:48:51.788Z,11.37
2019-03-31T08:51:21.498Z,5.33
2019-03-31T08:53:51.378Z,6.27
2019-03-31T08:56:20.970Z,7.63
2019-03-31T08:58:50.702Z,5.60
2019-03-31T09:01:21.591Z,7.30
2019-03-31T09:03:51.156Z,6.13
2019-03-31T09:06:20.639Z,6.30
2019-03-31T09:08:50.395Z,10.03
2019-03-31T09:11:19.890Z,5.20
2019-03-31T09:13:49.850Z,5.50
2019-03-31T09:16:19.520Z,5.90
2019-03-31T09:18:49.066Z,8.83
2019-03-31T09:21:19.776Z,8.17
2019-03-31T09:23:49.205Z,6.53
2019-03-31T09:26:18.908Z,7.27
2019-03-31T09:28:48.610Z,8.10
2019-03-31T09:31:21.418Z,7.03
2019-03-31T09:33:51.033Z,8.77
2019-03-31T09:36:20.946Z,7.47
2019-03-31T09:38:52.565Z,7.97
2019-03-31T09:45:20.705Z,7.57
2019-03-31T09:48:44.448Z,6.93
2019-03-31T09:51:14.531Z,10.63
2019-03-31T09:53:44.588Z,8.30
2019-03-31T09:56:18.839Z,11.50
2019-03-31T09:58:48.961Z,12.83
2019-03-31T10:01:18.692Z,9.70
2019-03-31T10:03:48.272Z,11.13
2019-03-31T10:06:29.519Z,10.77
2019-03-31T10:08:49.676Z,12.13
2019-03-31T10:11:19.542Z,7.67
2019-03-31T10:13:53.913Z,7.20
2019-03-31T10:16:23.995Z,6.73
2019-03-31T10:18:53.950Z,8.43
2019-03-31T10:21:26.775Z,12.53
2019-03-31T10:23:56.404Z,11.40
2019-03-31T10:26:32.256Z,9.50
2019-03-31T10:28:58.612Z,11.07
2019-03-31T10:31:28.404Z,7.87
2019-03-31T10:33:58.199Z,7.97
2019-03-31T10:36:28.159Z,13.80
2019-03-31T10:38:57.996Z,9.20
2019-03-31T10:41:30.822Z,17.03
2019-03-31T10:43:59.343Z,16.43
2019-03-31T10:46:29.006Z,17.53
2019-03-31T10:48:58.663Z,20.00
2019-03-31T10:51:29.277Z,23.80
2019-03-31T10:54:32.085Z,31.03
2019-03-31T10:57:02.485Z,26.10
2019-03-31T10:59:32.055Z,18.87
2019-03-31T11:02:01.762Z,18.47
2019-03-31T11:04:31.460Z,19.50
2019-03-31T11:07:03.542Z,15.73
2019-03-31T11:09:34.336Z,16.97
2019-03-31T11:12:06.775Z,21.40
2019-03-31T11:14:36.254Z,22.00
2019-03-31T11:17:13.082Z,16.70
2019-03-31T11:19:42.761Z,14.43
2019-03-31T11:22:19.883Z,15.93
2019-03-31T11:24:49.748Z,14.83
2019-03-31T11:27:19.526Z,14.40
2019-03-31T11:29:51.973Z,15.23
2019-03-31T11:32:21.657Z,17.67
2019-03-31T11:34:51.413Z,11.83
2019-03-31T11:55:00.434Z,12.43
2019-03-31T11:57:57.009Z,12.00
2019-03-31T12:00:54.754Z,15.07
2019-03-31T12:03:45.032Z,12.67
2019-03-31T12:06:19.070Z,13.87
2019-03-31T12:08:48.835Z,9.40
2019-03-31T12:11:18.701Z,10.37
2019-03-31T12:13:48.201Z,14.47
2019-03-31T12:16:17.775Z,9.87
2019-03-31T12:18:47.152Z,13.63
2019-03-31T12:21:19.530Z,10.60
2019-03-31T12:23:49.362Z,12.17
2019-03-31T12:26:23.199Z,11.07
2019-03-31T12:28:55.729Z,11.13
2019-03-31T12:31:26.411Z,8.87
2019-03-31T12:33:56.710Z,9.13
2019-03-31T12:36:26.823Z,10.03
2019-03-31T12:38:56.363Z,10.37
2019-03-31T12:41:25.987Z,8.40
2019-03-31T12:47:46.093Z,6.53
2019-03-31T12:50:15.811Z,9.10
2019-03-31T12:52:47.366Z,10.63
2019-03-31T12:55:16.740Z,11.43
2019-03-31T12:57:46.328Z,12.63
2019-03-31T13:00:16.110Z,11.10
2019-03-31T13:02:46.057Z,7.23
2019-03-31T13:05:15.360Z,7.80
2019-03-31T13:07:55.717Z,11.03
2019-03-31T13:10:15.949Z,10.53
2019-03-31T13:12:45.482Z,9.07
2019-03-31T13:15:15.053Z,14.40
2019-03-31T13:17:44.556Z,9.17
2019-03-31T13:20:14.073Z,7.07
2019-03-31T13:22:45.908Z,9.60
2019-03-31T13:25:15.065Z,8.47
2019-03-31T13:27:44.616Z,8.47
2019-03-31T13:30:14.410Z,11.30
2019-03-31T13:32:43.895Z,8.33
2019-03-31T13:35:13.269Z,8.60
2019-03-31T13:37:42.738Z,9.20
2019-03-31T13:40:12.749Z,8.33
2019-03-31T13:42:53.143Z,10.93
2019-03-31T13:45:23.120Z,10.53
2019-03-31T13:47:52.788Z,8.07
2019-03-31T13:50:22.312Z,8.57
2019-03-31T13:52:51.813Z,8.00
2019-03-31T13:55:21.247Z,8.13
2019-03-31T13:58:05.016Z,9.70
2019-03-31T14:00:45.047Z,9.23
2019-03-31T14:03:22.667Z,8.77
2019-03-31T14:06:04.591Z,7.53
2019-03-31T14:08:36.923Z,9.97
2019-03-31T14:11:06.583Z,12.13
2019-03-31T14:13:38.483Z,12.33
2019-03-31T14:16:07.991Z,9.73
2019-03-31T14:18:37.364Z,10.83
2019-03-31T14:21:06.819Z,8.23
2019-03-31T14:23:36.301Z,13.33
2019-03-31T14:26:05.820Z,10.50
2019-03-31T14:28:35.369Z,9.47
2019-03-31T14:31:04.786Z,9.13
2019-03-31T14:33:34.242Z,9.43
2019-03-31T14:36:03.648Z,8.73
2019-03-31T14:38:39.955Z,9.37
2019-03-31T14:41:04.107Z,8.20
2019-03-31T14:43:33.662Z,8.43
2019-03-31T14:46:03.235Z,9.27
2019-03-31T14:48:32.678Z,9.63
2019-03-31T14:51:02.137Z,11.50
2019-03-31T14:53:33.468Z,7.77
2019-03-31T14:56:02.895Z,11.00
2019-03-31T14:58:32.361Z,9.23
2019-03-31T15:01:01.982Z,8.50
2019-03-31T15:03:31.479Z,9.93
2019-03-31T15:06:03.642Z,9.73
2019-03-31T15:08:33.031Z,9.77
2019-03-31T15:11:02.398Z,7.77
2019-03-31T15:13:34.687Z,8.87
2019-03-31T15:16:04.476Z,9.63
2019-03-31T15:20:00.160Z,7.47
2019-03-31T15:21:21.867Z,13.73
2019-03-31T15:23:55.036Z,11.27
2019-03-31T15:32:23.575Z,7.33
2019-03-31T15:34:52.678Z,12.33
2019-03-31T15:37:22.190Z,11.07
2019-03-31T15:39:51.681Z,10.43
2019-03-31T15:42:23.243Z,12.13
2019-03-31T15:44:52.651Z,11.20
2019-03-31T15:47:34.491Z,13.07
2019-03-31T15:50:12.746Z,10.10
2019-03-31T15:52:42.384Z,10.03
2019-03-31T15:55:11.972Z,10.73
2019-03-31T15:57:41.479Z,10.77
2019-03-31T16:00:11.118Z,10.73
2019-03-31T16:02:40.498Z,9.10
2019-03-31T16:05:12.854Z,8.53
2019-03-31T16:07:44.802Z,6.50
2019-03-31T16:10:13.546Z,11.47
2019-03-31T16:12:42.325Z,8.63
2019-03-31T16:15:13.948Z,9.20
2019-03-31T16:17:42.842Z,10.67
2019-03-31T16:20:11.773Z,10.63
2019-03-31T16:22:40.631Z,8.67
2019-03-31T16:25:31.336Z,12.27
2019-03-31T16:28:06.538Z,10.83
2019-03-31T16:30:39.114Z,8.67
2019-03-31T16:33:11.038Z,11.20
2019-03-31T16:35:56.677Z,12.63
2019-03-31T16:38:28.806Z,9.90
2019-03-31T16:40:58.711Z,9.97
2019-03-31T16:43:30.191Z,8.17
2019-03-31T16:45:58.950Z,7.83
2019-03-31T16:48:36.144Z,8.70
2019-03-31T16:51:05.238Z,10.53
2019-03-31T16:53:34.256Z,12.70
2019-03-31T16:56:04.533Z,9.23
2019-03-31T16:58:33.603Z,12.77
2019-03-31T17:01:02.743Z,10.37
2019-03-31T17:03:31.798Z,10.63
2019-03-31T17:06:01.197Z,11.90
2019-03-31T17:08:33.487Z,8.00
2019-03-31T17:11:12.319Z,8.23
2019-03-31T17:13:43.616Z,6.93
2019-03-31T17:16:15.540Z,10.03
2019-03-31T17:18:44.996Z,7.40
2019-03-31T17:21:14.821Z,10.20
2019-03-31T17:23:47.960Z,7.50
2019-03-31T17:26:17.506Z,10.07
2019-03-31T17:28:49.221Z,8.67
2019-03-31T17:34:15.917Z,8.10
2019-03-31T17:36:45.440Z,6.37
2019-03-31T17:39:14.828Z,11.83
2019-03-31T17:41:45.282Z,10.10
2019-03-31T17:44:14.768Z,10.60
2019-03-31T17:47:04.767Z,12.40
2019-03-31T17:49:38.149Z,8.93
2019-03-31T17:52:17.850Z,10.60
2019-03-31T17:55:35.560Z,8.67
2019-03-31T17:58:28.781Z,11.17
2019-03-31T18:01:04.421Z,8.80
2019-03-31T18:04:03.134Z,20.73
2019-03-31T18:06:35.697Z,9.83
2019-03-31T18:09:11.386Z,12.17
2019-03-31T18:12:12.634Z,8.57
2019-03-31T18:14:44.491Z,10.57
2019-03-31T18:17:14.100Z,11.40
2019-03-31T18:19:46.780Z,9.50
2019-03-31T18:22:26.023Z,8.37
2019-03-31T18:25:21.392Z,13.57
2019-03-31T18:27:50.819Z,13.57
2019-03-31T18:30:21.194Z,11.03
2019-03-31T18:32:50.900Z,15.37
2019-03-31T18:35:20.270Z,13.20
2019-03-31T18:37:49.835Z,12.87
2019-03-31T18:40:19.276Z,9.83
2019-03-31T18:42:48.790Z,8.43
2019-03-31T18:45:20.573Z,11.73
2019-03-31T18:47:49.220Z,13.37
2019-03-31T18:50:18.121Z,13.13
2019-03-31T18:52:47.624Z,13.10
2019-03-31T18:55:26.527Z,9.37
2019-03-31T18:58:17.602Z,16.40
2019-03-31T19:01:08.769Z,10.20
2019-03-31T19:04:05.580Z,11.03
2019-03-31T19:06:41.470Z,10.80
2019-03-31T19:09:38.567Z,7.33
2019-03-31T19:12:38.380Z,10.27
2019-03-31T19:15:31.128Z,12.70
2019-03-31T19:18:21.538Z,9.93
2019-03-31T19:21:22.389Z,13.60
2019-03-31T19:24:05.488Z,12.97
2019-03-31T19:26:51.342Z,10.70
2019-03-31T19:29:31.098Z,11.93
2019-03-31T19:32:09.557Z,10.93
2019-03-31T19:35:06.756Z,10.63
2019-03-31T19:37:53.127Z,11.10
2019-03-31T19:40:44.279Z,16.80
2019-03-31T19:43:21.999Z,8.50
2019-03-31T19:46:16.210Z,9.23
2019-03-31T19:48:53.796Z,13.17
2019-03-31T19:51:34.889Z,12.83
2019-03-31T19:54:12.827Z,11.07
2019-03-31T19:57:00.722Z,12.23
2019-03-31T19:59:54.843Z,14.03
2019-03-31T20:02:41.590Z,14.77
2019-03-31T20:05:45.215Z,11.10
2019-03-31T20:08:30.880Z,12.53
2019-03-31T20:11:54.161Z,14.07
2019-03-31T20:15:07.344Z,10.37
2019-03-31T20:17:44.594Z,12.97
2019-03-31T20:20:25.760Z,8.33
2019-03-31T20:23:14.255Z,14.63
2019-03-31T20:26:03.985Z,13.23
2019-03-31T20:29:07.141Z,12.97
2019-03-31T20:32:14.880Z,10.00
2019-03-31T20:35:04.530Z,12.23
2019-03-31T20:38:07.395Z,7.40
2019-03-31T20:41:01.456Z,10.70
2019-03-31T20:43:47.669Z,14.07
2019-03-31T20:46:19.512Z,13.33
2019-03-31T20:48:55.605Z,13.93
2019-03-31T20:51:24.629Z,9.63
2019-03-31T20:54:00.515Z,17.07
2019-03-31T20:56:36.147Z,15.57
2019-03-31T21:08:56.848Z,12.07
2019-03-31T21:11:28.613Z,7.37
2019-03-31T21:14:02.773Z,10.43
2019-03-31T21:16:32.443Z,12.27
2019-03-31T21:19:01.459Z,10.77
2019-03-31T21:21:30.496Z,11.93
2019-03-31T21:23:59.664Z,12.47
2019-03-31T21:26:28.725Z,10.30
2019-03-31T21:28:57.766Z,8.83
2019-03-31T21:31:26.806Z,7.83
2019-03-31T21:33:55.913Z,14.50
2019-03-31T21:36:25.439Z,11.13
2019-03-31T21:38:54.571Z,10.60
2019-03-31T21:41:23.419Z,9.63
2019-03-31T21:43:52.423Z,13.10
2019-03-31T21:46:21.449Z,12.77
2019-03-31T21:48:50.468Z,8.20
2019-03-31T21:51:19.466Z,10.43
2019-03-31T21:53:48.557Z,9.07
2019-03-31T21:56:17.716Z,13.37
2019-03-31T21:58:46.710Z,10.77
2019-03-31T22:01:15.917Z,12.03
2019-03-31T22:03:44.990Z,9.07
2019-03-31T22:06:14.003Z,8.87
2019-03-31T22:08:42.977Z,10.67
2019-03-31T22:11:11.919Z,8.67
2019-03-31T22:13:40.839Z,6.33
2019-03-31T22:16:09.714Z,10.80
2019-03-31T22:18:38.654Z,10.90
2019-03-31T22:21:07.670Z,12.33
2019-03-31T22:23:36.684Z,10.67
2019-03-31T22:26:05.767Z,12.03
2019-03-31T22:28:34.882Z,13.03
2019-03-31T22:31:03.876Z,18.83
2019-03-31T22:33:32.978Z,11.90
2019-03-31T22:36:19.430Z,10.50
2019-03-31T22:38:48.661Z,18.67
2019-03-31T22:41:17.967Z,15.87
2019-03-31T22:43:47.604Z,10.03
2019-03-31T22:46:16.734Z,9.20
2019-03-31T22:48:45.828Z,9.27
2019-03-31T22:51:14.915Z,12.93
2019-03-31T22:53:43.884Z,13.33
2019-03-31T22:56:12.949Z,12.10
2019-03-31T22:58:42.108Z,15.43
2019-03-31T23:01:11.269Z,10.70
2019-03-31T23:03:40.305Z,12.37
2019-03-31T23:06:09.463Z,13.53
2019-03-31T23:08:38.559Z,8.90
2019-03-31T23:11:07.682Z,9.20
2019-03-31T23:13:36.546Z,11.33
2019-03-31T23:16:05.541Z,10.57
2019-03-31T23:18:34.584Z,15.07
2019-03-31T23:21:03.525Z,8.33
2019-03-31T23:23:32.528Z,11.87
2019-03-31T23:26:01.630Z,9.23
2019-03-31T23:28:30.831Z,13.87
2019-03-31T23:30:59.831Z,10.07
2019-03-31T23:33:30.678Z,10.33
2019-03-31T23:35:59.614Z,11.07
2019-03-31T23:38:31.620Z,9.93
2019-03-31T23:41:00.702Z,15.33
2019-03-31T23:43:29.727Z,8.93
2019-03-31T23:45:58.842Z,8.33
2019-03-31T23:48:27.897Z,7.47
2019-03-31T23:50:56.849Z,10.20
2019-03-31T23:53:28.550Z,8.33
2019-03-31T23:55:57.601Z,6.03
2019-03-31T23:58:26.671Z,10.50
